Richmond, VA (23229)

2:02 AM EDT on August 02, 2015 (GMT -0400)
Windsor Farms | | Change Station
CLOSE
Current Station
Personal Weather Station
Location: Richmond, VA
Elevation: 242 ft
Nearby Weather Stations

Elev 242 ft 37.56 °N, 77.50 °W | Updated 1 minute ago

Mostly Cloudy
Mostly Cloudy
76.3 °F
Feels Like 78 °F
N
0.0
Wind Variable Wind from ENE
Gusts 0.0 mph

Today
High -- | Low -- °F
--% Chance of Precip.
Yesterday
High -- | Low -- °F
Precip. -- in
6:14 AM 8:17 PM
Waning Gibbous, 95% visible
Pressure 29.91 in
Visibility 10.0 miles
Clouds Scattered Clouds 9000 ft
Heat Index 78 °F
Dew Point 66 °F
Humidity 71%
Rainfall 0.00 in
Snow Depth Not available.
UV 0 out of 12
Pollen 6.60 out of 12
Air Quality Not available.
Flu Activity Not available.
METAR KRIC 020554Z 36007KT 10SM SCT090 24/18 A2990 RMK AO2 SLP128 T02390178 10300 20239 53005

More Conditions Fewer Conditions

Pressure 29.91 in
Visibility 10.0 miles
Clouds Scattered Clouds 9000 ft
Heat Index 78 °F
Dew Point 66 °F
Humidity 71%
Rainfall 0.00 in
Snow Depth Not available.
UV 0 out of 12
Pollen 6.60 out of 12
Air Quality Not available.
Flu Activity Not available.
METAR KRIC 020554Z 36007KT 10SM SCT090 24/18 A2990 RMK AO2 SLP128 T02390178 10300 20239 53005

More Conditions Fewer Conditions

10-Day Weather Forecast

×

Almanac

Astronomy

Aug. 02, 2015 Rise Set
Actual Time
Civil Twilight
Nautical Twilight
Astronomical Twilight
Moon
Length of Visible Light
Length of Day
Tomorrow will be .
, % of the Moon is Illuminated

Today's Extremes

State Highs State Lows

Community

WunderPhotos

Upload Photos

1,843,197 photos uploaded!

WunderBlogs® & News

Nearby

Air Quality

  Air Quality AQ Index Pollutant
Not available.

Snow Depth

Station Depth Elevation

Earthquake Activity

City Distance Mag. Time & Date
Minimum magnitude displayed is 2.5.

Coastal Water Temperatures

Place Temperature

Stations

Nearby Weather Stations

Station Location Temp. Windchill Dew Point Humidity Wind Precip. Elev Updated Type